Time;durP1;ratioP1;P1;durP2;ratioP2;P2;SDS_P1;SDS_P2;PMS_P1;PMS_P2;Temp;Humidity;BMP_temperature;BMP_pressure;BME280_temperature;BME280_humidity;BME280_pressure;Samples;Min_cycle;Max_cycle;Signal;HPM_P1;HPM_P2
2022/04/21 00:00:50;;;;;;;10.25;6.68;;;9.10;92.00;;;;;;6066576;23;92285;-70
2022/04/21 00:03:17;;;;;;;9.77;6.95;;;9.10;92.00;;;;;;6041382;23;91701;-70
2022/04/21 00:05:44;;;;;;;9.13;6.55;;;9.10;92.20;;;;;;6066319;23;93108;-70
2022/04/21 00:08:15;;;;;;;9.43;6.68;;;9.10;92.30;;;;;;6066645;23;95396;-70
2022/04/21 00:10:42;;;;;;;8.27;6.35;;;9.10;92.30;;;;;;6039235;23;94875;-70
2022/04/21 00:13:09;;;;;;;9.93;7.30;;;9.00;92.20;;;;;;6041044;23;92406;-70
2022/04/21 00:15:36;;;;;;;9.43;6.88;;;9.10;92.30;;;;;;6040545;23;93045;-70
2022/04/21 00:18:03;;;;;;;8.80;6.03;;;9.00;92.40;;;;;;6066475;23;92347;-70
2022/04/21 00:20:30;;;;;;;8.07;6.65;;;9.00;92.50;;;;;;6040723;23;92730;-70
2022/04/21 00:25:43;;;;;;;8.98;6.50;;;9.00;92.50;;;;;;6066469;23;93255;-70
2022/04/21 00:28:10;;;;;;;12.18;7.15;;;9.00;92.60;;;;;;6040819;23;94136;-71
2022/04/21 00:30:37;;;;;;;8.38;6.20;;;9.00;92.60;;;;;;6065925;23;92397;-70
2022/04/21 00:33:04;;;;;;;8.20;6.40;;;9.00;92.60;;;;;;6040451;23;92478;-70
2022/04/21 00:35:31;;;;;;;9.85;7.22;;;9.00;92.60;;;;;;6064881;23;95609;-70
2022/04/21 00:37:58;;;;;;;9.93;6.35;;;9.00;92.80;;;;;;6039918;23;97939;-70
2022/04/21 00:40:28;;;;;;;10.88;7.50;;;9.00;92.90;;;;;;6066697;23;92398;-70
2022/04/21 00:42:56;;;;;;;11.35;6.60;;;9.00;93.00;;;;;;6066326;23;92347;-70
2022/04/21 00:45:24;;;;;;;11.90;7.55;;;8.90;93.00;;;;;;6064559;23;95652;-70
2022/04/21 00:47:52;;;;;;;8.68;7.20;;;9.00;93.00;;;;;;6066296;23;93042;-70
2022/04/21 00:50:33;;;;;;;10.35;6.78;;;8.90;93.00;;;;;;6066620;23;92687;-70
2022/04/21 00:53:01;;;;;;;8.15;6.93;;;9.00;93.00;;;;;;6066816;23;91630;-70
2022/04/21 00:55:31;;;;;;;11.25;7.13;;;8.90;93.00;;;;;;6040768;23;93040;-70
2022/04/21 00:58:01;;;;;;;9.55;7.10;;;8.90;93.20;;;;;;6065485;23;105250;-70
2022/04/21 01:00:28;;;;;;;9.80;7.47;;;8.90;93.20;;;;;;6065332;23;94958;-70
2022/04/21 01:02:56;;;;;;;10.32;7.15;;;8.80;93.20;;;;;;6066270;23;92297;-70
2022/04/21 01:05:28;;;;;;;10.82;7.65;;;8.90;93.20;;;;;;6066157;23;93226;-70
2022/04/21 01:07:58;;;;;;;10.90;8.00;;;8.80;93.20;;;;;;6016421;23;94155;-70
2022/04/21 01:10:27;;;;;;;11.48;7.38;;;8.80;93.40;;;;;;6066577;23;92386;-70
2022/04/21 01:12:55;;;;;;;11.70;7.93;;;8.80;93.40;;;;;;6040018;23;92571;-70
2022/04/21 01:15:31;;;;;;;9.63;8.27;;;8.70;93.50;;;;;;6066307;23;93262;-70
2022/04/21 01:18:06;;;;;;;9.60;7.37;;;8.70;93.50;;;;;;6066487;23;91851;-70
2022/04/21 01:20:34;;;;;;;12.30;7.85;;;8.70;93.60;;;;;;6065897;23;99856;-70
2022/04/21 01:23:01;;;;;;;11.77;7.57;;;8.60;93.90;;;;;;6066099;23;92423;-70
2022/04/21 01:25:37;;;;;;;13.05;8.38;;;8.50;93.80;;;;;;6038655;23;95467;-70
2022/04/21 01:28:05;;;;;;;15.05;8.40;;;8.50;93.90;;;;;;6065641;23;95542;-71
2022/04/21 01:30:32;;;;;;;11.25;8.00;;;8.40;94.10;;;;;;6035486;23;92879;-70
2022/04/21 01:32:59;;;;;;;12.65;9.32;;;8.40;94.10;;;;;;6036954;23;92426;-70
2022/04/21 01:35:25;;;;;;;12.25;8.48;;;8.40;94.10;;;;;;6010772;23;94172;-71
2022/04/21 01:43:23;;;;;;;12.43;9.23;;;8.20;94.50;;;;;;6036477;23;91693;-70
2022/04/21 01:45:50;;;;;;;11.75;8.95;;;8.20;94.60;;;;;;6036191;23;104566;-70
2022/04/21 01:48:17;;;;;;;11.18;8.75;;;8.20;94.60;;;;;;6035356;23;95422;-71
2022/04/21 01:50:44;;;;;;;14.38;9.05;;;8.20;94.70;;;;;;6035813;23;94816;-71
2022/04/21 01:53:11;;;;;;;11.98;9.07;;;8.20;94.70;;;;;;6036874;23;92406;-70
2022/04/21 01:55:38;;;;;;;13.07;8.52;;;8.20;94.80;;;;;;6035077;23;94562;-70
2022/04/21 01:58:05;;;;;;;13.23;8.18;;;8.20;94.90;;;;;;6034845;23;95582;-70
2022/04/21 02:00:32;;;;;;;11.18;8.15;;;8.20;94.90;;;;;;6037388;23;92731;-70
2022/04/21 02:03:03;;;;;;;13.48;8.60;;;8.10;94.80;;;;;;6036953;23;92351;-70
2022/04/21 02:05:30;;;;;;;12.60;8.98;;;8.10;94.70;;;;;;6036801;23;93130;-70
2022/04/21 02:07:57;;;;;;;11.95;8.85;;;8.20;94.70;;;;;;6036809;23;98579;-70
2022/04/21 02:10:24;;;;;;;10.57;8.38;;;8.20;94.50;;;;;;6037047;23;92390;-70
2022/04/21 02:12:51;;;;;;;11.38;9.15;;;8.20;94.40;;;;;;6036707;23;92398;-70
2022/04/21 02:15:18;;;;;;;8.95;8.05;;;8.20;94.40;;;;;;6035273;23;95469;-70
2022/04/21 02:17:46;;;;;;;11.07;8.48;;;8.20;94.30;;;;;;6036863;23;95380;-70
2022/04/21 02:20:15;;;;;;;12.25;8.45;;;8.30;94.30;;;;;;6035204;23;92869;-70
2022/04/21 02:22:44;;;;;;;13.68;8.98;;;8.30;94.20;;;;;;6035092;23;92516;-70
2022/04/21 02:25:13;;;;;;;10.38;8.30;;;8.30;94.20;;;;;;6036323;23;93263;-70
2022/04/21 02:27:45;;;;;;;12.80;9.10;;;8.30;94.10;;;;;;6036828;23;92952;-70
2022/04/21 02:30:15;;;;;;;13.18;9.40;;;8.30;94.00;;;;;;6039730;23;92369;-70
2022/04/21 02:32:43;;;;;;;11.38;9.05;;;8.30;94.00;;;;;;6066570;23;91570;-70
2022/04/21 02:35:11;;;;;;;10.98;8.75;;;8.30;94.00;;;;;;6015474;23;95635;-70
2022/04/21 02:37:40;;;;;;;10.93;9.05;;;8.30;93.90;;;;;;6040211;23;93055;-70
2022/04/21 02:40:09;;;;;;;15.00;9.52;;;8.20;94.00;;;;;;6064282;23;94788;-70
2022/04/21 02:42:40;;;;;;;14.57;9.80;;;8.20;94.00;;;;;;6040164;23;92437;-70
2022/04/21 02:45:11;;;;;;;13.85;9.55;;;8.30;94.00;;;;;;6065323;23;93246;-70
2022/04/21 02:47:43;;;;;;;13.30;9.10;;;8.20;94.00;;;;;;6041395;23;92479;-70
2022/04/21 02:50:12;;;;;;;13.30;8.98;;;8.30;94.10;;;;;;6067019;23;92280;-70
2022/04/21 02:52:40;;;;;;;10.80;8.45;;;8.20;94.00;;;;;;6067052;23;92435;-70
2022/04/21 02:57:55;;;;;;;10.55;9.13;;;8.20;94.00;;;;;;6041366;23;99278;-70
2022/04/21 03:00:22;;;;;;;12.43;9.27;;;8.20;94.00;;;;;;6067004;23;92309;-70
2022/04/21 03:02:48;;;;;;;12.25;9.98;;;8.10;94.10;;;;;;6040651;23;99067;-70
2022/04/21 03:05:16;;;;;;;10.00;8.40;;;8.10;94.10;;;;;;6038000;23;95664;-70
2022/04/21 03:07:43;;;;;;;12.07;9.10;;;8.10;94.20;;;;;;6040545;23;98124;-70
2022/04/21 03:10:32;;;;;;;12.10;9.60;;;8.00;94.20;;;;;;6040777;23;92343;-70
2022/04/21 03:13:01;;;;;;;10.15;8.93;;;8.10;94.10;;;;;;6066728;23;92422;-70
2022/04/21 03:15:28;;;;;;;13.82;9.93;;;8.00;94.10;;;;;;6066940;23;93107;-70
2022/04/21 03:17:55;;;;;;;11.95;9.27;;;8.00;94.10;;;;;;6041144;23;98612;-70
2022/04/21 03:25:53;;;;;;;11.75;8.93;;;8.00;94.40;;;;;;6040958;23;95655;-70
2022/04/21 03:28:19;;;;;;;15.40;9.45;;;8.00;94.20;;;;;;6040511;23;95613;-70
2022/04/21 03:30:46;;;;;;;12.73;9.55;;;8.00;94.10;;;;;;6065005;23;94831;-70
2022/04/21 03:33:13;;;;;;;15.05;9.40;;;8.00;94.10;;;;;;6066602;23;92395;-71
2022/04/21 03:35:41;;;;;;;11.45;9.52;;;8.00;94.30;;;;;;6066703;23;93157;-70
2022/04/21 03:38:08;;;;;;;13.32;9.90;;;8.00;94.00;;;;;;6066458;23;92729;-71
2022/04/21 03:40:35;;;;;;;10.93;9.45;;;7.90;94.00;;;;;;6041314;23;92472;-70
2022/04/21 03:43:02;;;;;;;13.65;9.18;;;7.90;94.10;;;;;;6040465;23;92477;-70
2022/04/21 03:45:29;;;;;;;11.93;8.73;;;7.90;94.10;;;;;;6066638;23;93097;-70
2022/04/21 03:47:58;;;;;;;10.95;9.13;;;7.90;94.30;;;;;;6065563;23;95476;-70
2022/04/21 03:50:25;;;;;;;13.23;9.98;;;7.90;94.10;;;;;;6066648;23;92857;-71
2022/04/21 03:52:52;;;;;;;12.63;9.65;;;7.90;94.10;;;;;;6040094;23;92413;-71
2022/04/21 03:55:19;;;;;;;13.38;9.35;;;7.90;94.10;;;;;;6039074;23;95546;-70
2022/04/21 03:57:46;;;;;;;14.73;9.45;;;7.80;94.10;;;;;;6040200;23;96453;-70
2022/04/21 04:00:13;;;;;;;11.60;9.15;;;7.80;94.20;;;;;;6040554;23;92479;-70
2022/04/21 04:02:40;;;;;;;11.65;9.55;;;7.80;94.20;;;;;;6066388;23;103134;-70
2022/04/21 04:05:07;;;;;;;15.23;9.75;;;7.80;94.30;;;;;;6040606;23;92454;-70
2022/04/21 04:13:05;;;;;;;12.98;9.52;;;7.80;94.50;;;;;;6067341;23;92640;-71
2022/04/21 04:15:33;;;;;;;11.52;9.05;;;7.70;94.50;;;;;;6016596;23;95932;-70
2022/04/21 04:18:00;;;;;;;12.98;9.55;;;7.70;94.60;;;;;;6066448;23;92878;-70
2022/04/21 04:20:27;;;;;;;10.60;8.48;;;7.70;94.70;;;;;;6039572;23;94927;-70
2022/04/21 04:22:54;;;;;;;10.90;9.50;;;7.70;94.70;;;;;;6040193;23;101961;-70
2022/04/21 04:25:21;;;;;;;14.75;9.70;;;7.60;94.70;;;;;;6040562;23;93726;-70
2022/04/21 04:27:48;;;;;;;13.38;9.40;;;7.60;94.80;;;;;;6016541;23;95622;-71
2022/04/21 04:30:16;;;;;;;13.35;10.00;;;7.60;94.70;;;;;;6040654;23;92489;-70
2022/04/21 04:32:43;;;;;;;16.08;9.55;;;7.60;94.80;;;;;;6066115;23;92814;-71
2022/04/21 04:35:10;;;;;;;14.05;10.05;;;7.60;94.80;;;;;;6016729;23;93112;-70
2022/04/21 04:37:37;;;;;;;11.52;9.35;;;7.60;94.60;;;;;;6066283;23;93099;-70
2022/04/21 04:40:05;;;;;;;12.23;9.65;;;7.60;94.60;;;;;;6066603;23;92433;-70
2022/04/21 04:42:32;;;;;;;13.20;9.07;;;7.60;94.60;;;;;;6016381;23;92755;-70
2022/04/21 04:47:44;;;;;;;11.32;8.80;;;7.70;94.40;;;;;;6040530;23;97846;-70
2022/04/21 04:50:11;;;;;;;15.10;9.77;;;7.70;94.30;;;;;;6066413;23;92331;-70
2022/04/21 04:52:38;;;;;;;13.85;9.18;;;7.80;94.30;;;;;;6040432;23;92596;-70
2022/04/21 04:55:09;;;;;;;12.25;9.05;;;7.80;94.20;;;;;;6040295;23;94372;-70
2022/04/21 04:57:37;;;;;;;14.05;8.80;;;7.80;94.20;;;;;;6066418;23;92929;-70
2022/04/21 05:00:04;;;;;;;15.02;9.18;;;7.90;94.10;;;;;;6066651;23;92734;-70
2022/04/21 05:02:31;;;;;;;9.95;8.10;;;8.00;93.90;;;;;;6040076;23;99333;-70
2022/04/21 05:04:58;;;;;;;9.60;8.38;;;8.10;93.80;;;;;;6065949;23;93171;-70
2022/04/21 05:07:26;;;;;;;9.52;8.25;;;8.30;93.60;;;;;;6065891;23;92778;-70
2022/04/21 05:09:53;;;;;;;10.75;8.32;;;8.50;93.40;;;;;;6039012;23;94948;-71
2022/04/21 05:12:21;;;;;;;10.95;8.20;;;8.50;92.90;;;;;;6040082;23;92488;-71
2022/04/21 05:14:48;;;;;;;10.07;8.00;;;8.60;92.80;;;;;;6040695;23;93211;-70
2022/04/21 05:17:15;;;;;;;8.85;7.88;;;8.60;92.80;;;;;;6065947;23;92931;-70
2022/04/21 05:19:42;;;;;;;9.40;7.85;;;8.60;92.80;;;;;;6066509;23;92336;-71
2022/04/21 05:22:12;;;;;;;8.43;7.10;;;8.90;92.60;;;;;;6016386;23;92479;-71
2022/04/21 05:24:44;;;;;;;9.35;7.13;;;9.40;92.20;;;;;;6066054;23;92395;-71
2022/04/21 05:27:12;;;;;;;8.75;7.28;;;9.90;91.30;;;;;;6040447;23;94166;-71
2022/04/21 05:32:28;;;;;;;9.18;6.63;;;11.20;88.50;;;;;;6066271;23;92308;-71
2022/04/21 05:34:55;;;;;;;7.57;6.80;;;11.80;85.60;;;;;;6064635;23;95719;-71
2022/04/21 05:37:23;;;;;;;8.05;6.18;;;12.30;84.70;;;;;;6039642;23;97909;-71
2022/04/21 05:39:50;;;;;;;7.82;7.03;;;12.80;82.20;;;;;;6066455;23;92376;-71
2022/04/21 05:42:22;;;;;;;7.70;6.57;;;13.00;80.20;;;;;;6039988;23;92454;-71
2022/04/21 05:44:54;;;;;;;8.55;7.22;;;13.10;79.40;;;;;;6066110;23;93208;-71
2022/04/21 05:47:21;;;;;;;7.45;6.47;;;13.10;79.50;;;;;;6065707;23;93504;-71
2022/04/21 05:49:49;;;;;;;7.60;6.15;;;13.10;79.00;;;;;;6066331;23;92423;-71
2022/04/21 05:52:21;;;;;;;8.05;6.57;;;13.10;78.40;;;;;;6066633;23;91650;-71
2022/04/21 05:54:49;;;;;;;7.93;6.30;;;13.20;78.40;;;;;;6066115;23;92423;-71
2022/04/21 05:57:15;;;;;;;7.03;6.32;;;13.00;78.70;;;;;;6039106;23;111148;-71
2022/04/21 05:59:42;;;;;;;6.78;6.13;;;12.70;78.80;;;;;;6064627;23;94741;-71
2022/04/21 06:02:10;;;;;;;7.50;5.90;;;12.80;79.00;;;;;;6040694;23;92477;-71
2022/04/21 06:04:38;;;;;;;6.80;6.20;;;13.10;78.70;;;;;;6040624;23;93085;-71
2022/04/21 06:07:05;;;;;;;11.57;6.15;;;13.40;77.50;;;;;;6065797;23;92775;-71
2022/04/21 06:09:32;;;;;;;6.38;5.78;;;14.00;75.80;;;;;;6065846;23;92343;-71
2022/04/21 06:11:59;;;;;;;6.78;6.07;;;14.40;72.90;;;;;;6040692;23;92430;-71
2022/04/21 06:14:26;;;;;;;6.75;6.07;;;14.60;71.10;;;;;;6065594;23;93067;-71
2022/04/21 06:16:53;;;;;;;7.43;6.65;;;14.60;70.00;;;;;;6064548;23;95532;-71
2022/04/21 06:19:20;;;;;;;7.03;5.55;;;14.50;70.00;;;;;;6039889;23;100116;-71
2022/04/21 06:21:47;;;;;;;7.68;5.47;;;14.30;70.70;;;;;;6039731;23;92877;-71
2022/04/21 06:24:14;;;;;;;5.95;5.32;;;14.50;71.10;;;;;;6064388;23;95722;-71
2022/04/21 06:26:42;;;;;;;8.80;5.35;;;14.90;69.70;;;;;;6039325;23;96379;-71
2022/04/21 06:29:09;;;;;;;6.13;5.30;;;15.00;67.90;;;;;;6066398;23;92696;-71
2022/04/21 06:31:36;;;;;;;6.63;5.60;;;14.90;68.00;;;;;;6064910;23;92389;-71
2022/04/21 06:34:04;;;;;;;5.63;5.03;;;14.80;68.10;;;;;;6065755;23;93226;-71
2022/04/21 06:36:31;;;;;;;6.63;5.95;;;15.00;68.30;;;;;;6065347;23;92998;-71
2022/04/21 06:38:58;;;;;;;6.50;5.90;;;15.10;68.20;;;;;;6066052;23;93132;-71
2022/04/21 06:41:25;;;;;;;5.55;5.05;;;15.10;68.50;;;;;;6040440;23;91683;-71
2022/04/21 06:49:23;;;;;;;5.43;4.93;;;15.10;66.90;;;;;;6038629;23;94837;-71
2022/04/21 06:51:49;;;;;;;6.03;5.20;;;14.90;67.70;;;;;;6065629;23;92382;-71
2022/04/21 06:54:16;;;;;;;5.82;4.60;;;14.70;67.70;;;;;;6039450;23;95000;-71
2022/04/21 06:56:48;;;;;;;8.07;5.85;;;14.60;67.70;;;;;;6065364;23;92969;-71
2022/04/21 06:59:16;;;;;;;6.00;4.90;;;14.50;68.40;;;;;;6064104;23;92516;-71
2022/04/21 07:01:46;;;;;;;6.55;4.93;;;14.40;69.40;;;;;;6065352;23;92479;-71
2022/04/21 07:04:14;;;;;;;5.35;4.85;;;14.40;69.40;;;;;;6065434;23;93055;-71
2022/04/21 07:06:41;;;;;;;7.50;5.13;;;14.50;69.20;;;;;;6039948;23;92866;-71
2022/04/21 07:09:08;;;;;;;5.00;4.60;;;14.70;68.70;;;;;;6065650;23;92394;-71
2022/04/21 07:11:38;;;;;;;6.20;4.43;;;15.00;67.90;;;;;;6065157;23;92392;-71
2022/04/21 07:14:06;;;;;;;6.10;5.50;;;15.30;66.60;;;;;;6037593;23;96644;-71
2022/04/21 07:16:32;;;;;;;5.97;5.47;;;15.50;66.60;;;;;;6064829;23;95196;-71
2022/04/21 07:19:00;;;;;;;4.95;4.60;;;15.70;66.00;;;;;;6065619;23;92869;-71
2022/04/21 07:21:27;;;;;;;7.78;4.93;;;15.80;65.10;;;;;;6065462;23;92415;-71
2022/04/21 07:23:54;;;;;;;5.47;4.97;;;15.90;64.50;;;;;;6039084;23;101947;-71
2022/04/21 07:26:21;;;;;;;5.78;5.30;;;16.00;64.10;;;;;;6039432;23;93070;-71
2022/04/21 07:28:48;;;;;;;5.15;4.70;;;16.10;64.30;;;;;;6065144;23;92855;-71
2022/04/21 07:31:15;;;;;;;5.22;4.70;;;16.20;63.70;;;;;;6065524;23;91712;-71
2022/04/21 07:33:42;;;;;;;5.28;4.35;;;16.40;63.40;;;;;;6066027;23;93121;-71
2022/04/21 07:36:10;;;;;;;4.97;4.10;;;16.60;63.10;;;;;;6041206;23;92745;-71
2022/04/21 07:38:37;;;;;;;5.25;4.72;;;16.80;62.20;;;;;;6039075;23;94806;-71
2022/04/21 07:41:04;;;;;;;5.28;4.78;;;16.70;61.30;;;;;;6040709;23;92494;-71
2022/04/21 07:43:33;;;;;;;5.35;4.70;;;16.70;62.20;;;;;;6066365;23;92680;-70
2022/04/21 07:46:00;;;;;;;6.50;6.05;;;16.70;61.80;;;;;;6066422;23;92626;-70
2022/04/21 07:49:44;;;;;;;5.68;5.20;;;16.90;61.80;;;;;;6066947;23;92443;-70
2022/04/21 07:51:14;;;;;;;4.72;4.32;;;17.10;60.30;;;;;;6066605;23;92987;-70
2022/04/21 07:53:43;;;;;;;5.70;5.30;;;17.30;57.40;;;;;;6040363;23;96057;-70
2022/04/21 07:56:16;;;;;;;5.68;5.18;;;17.80;56.70;;;;;;6042695;23;93098;-70
2022/04/21 07:58:49;;;;;;;7.25;6.93;;;18.40;54.10;;;;;;6066915;23;92691;-70
2022/04/21 08:01:23;;;;;;;7.05;6.55;;;18.90;52.00;;;;;;6066905;23;92778;-70
2022/04/21 08:03:50;;;;;;;6.65;6.20;;;19.70;50.30;;;;;;6038747;23;98411;-71
2022/04/21 08:06:17;;;;;;;7.47;7.07;;;20.20;48.40;;;;;;6040180;23;113271;-71
2022/04/21 08:08:44;;;;;;;6.95;6.45;;;20.80;45.50;;;;;;6040455;23;92346;-71
2022/04/21 08:11:11;;;;;;;6.00;5.60;;;21.10;44.50;;;;;;6040718;23;92942;-71
2022/04/21 08:13:38;;;;;;;7.03;6.63;;;21.70;43.40;;;;;;6040301;23;92502;-71
2022/04/21 08:16:14;;;;;;;7.82;7.30;;;22.10;42.10;;;;;;6040544;23;96570;-71
2022/04/21 08:18:41;;;;;;;7.72;7.22;;;22.40;40.80;;;;;;6066491;23;92313;-71
2022/04/21 08:21:08;;;;;;;6.13;5.78;;;22.50;39.70;;;;;;6040996;23;95065;-71
2022/04/21 08:32:33;;;;;;;5.93;5.57;;;22.90;40.00;;;;;;6066410;23;93222;-71
2022/04/21 08:32:52;;;;;;;6.97;6.47;;;23.40;38.70;;;;;;6040323;23;92947;-71
2022/04/21 08:35:20;;;;;;;7.50;7.07;;;23.30;38.40;;;;;;6066460;23;92988;-71
2022/04/21 08:37:49;;;;;;;5.70;5.30;;;22.90;38.60;;;;;;6040156;23;95431;-71
2022/04/21 08:40:16;;;;;;;9.63;9.07;;;22.70;38.70;;;;;;6041255;23;92417;-71
2022/04/21 08:42:44;;;;;;;5.53;5.18;;;22.60;38.60;;;;;;6066477;23;92509;-71
2022/04/21 08:45:12;;;;;;;7.97;7.47;;;22.50;38.70;;;;;;6016024;23;95745;-71
2022/04/21 08:47:40;;;;;;;4.63;4.07;;;22.20;39.30;;;;;;6040170;23;95477;-71
2022/04/21 08:50:13;;;;;;;4.05;3.70;;;21.80;40.60;;;;;;6040958;23;92460;-71
2022/04/21 08:52:41;;;;;;;3.70;3.40;;;21.30;41.70;;;;;;6066257;23;92394;-71
2022/04/21 08:55:10;;;;;;;3.50;3.20;;;20.90;41.70;;;;;;6039120;23;95417;-71
2022/04/21 08:57:37;;;;;;;4.53;4.22;;;20.20;43.70;;;;;;6040074;23;97998;-71
2022/04/21 09:00:06;;;;;;;4.43;4.00;;;19.60;45.20;;;;;;6066329;23;92323;-71
2022/04/21 09:02:47;;;;;;;3.70;3.40;;;19.10;46.50;;;;;;6039849;23;100152;-71
2022/04/21 09:05:14;;;;;;;5.07;3.65;;;18.60;49.20;;;;;;6066360;23;93210;-71
2022/04/21 09:07:45;;;;;;;4.15;3.72;;;18.10;50.10;;;;;;6066089;23;93060;-70
2022/04/21 09:10:33;;;;;;;4.65;3.88;;;17.90;51.00;;;;;;6040819;23;92693;-71
2022/04/21 09:13:01;;;;;;;2.88;2.67;;;17.50;52.20;;;;;;6040515;23;92226;-70
2022/04/21 09:15:37;;;;;;;5.90;3.72;;;17.10;53.40;;;;;;6066261;23;92407;-70
2022/04/21 09:18:10;;;;;;;4.30;3.30;;;17.00;54.20;;;;;;6066257;23;93017;-70
2022/04/21 09:20:39;;;;;;;5.03;3.60;;;16.70;55.10;;;;;;6039081;23;94838;-70
2022/04/21 09:23:10;;;;;;;5.35;3.95;;;16.70;55.10;;;;;;6066353;23;92518;-70
2022/04/21 09:25:50;;;;;;;7.45;3.63;;;16.60;56.10;;;;;;6066252;23;93017;-70
2022/04/21 09:28:31;;;;;;;3.40;2.97;;;16.60;57.60;;;;;;6039881;23;94675;-70
2022/04/21 09:31:00;;;;;;;4.97;3.65;;;16.50;58.10;;;;;;6066046;23;92361;-70
2022/04/21 09:33:28;;;;;;;3.88;3.38;;;16.40;58.80;;;;;;6040835;23;92374;-70
2022/04/21 09:35:56;;;;;;;4.78;4.30;;;16.40;58.70;;;;;;6065742;23;92946;-70
2022/04/21 09:38:24;;;;;;;4.97;3.55;;;16.30;58.50;;;;;;6016464;23;95597;-70
2022/04/21 09:40:51;;;;;;;4.60;4.13;;;16.40;58.20;;;;;;6066242;23;92308;-70
2022/04/21 09:43:29;;;;;;;4.35;3.95;;;16.40;58.20;;;;;;6040777;23;92450;-70
2022/04/21 09:46:11;;;;;;;3.55;3.28;;;16.40;58.60;;;;;;6064549;23;95566;-70
2022/04/21 09:48:39;;;;;;;5.22;3.58;;;16.40;58.60;;;;;;6040458;23;95318;-70
2022/04/21 09:51:17;;;;;;;3.55;3.00;;;16.30;58.70;;;;;;6040430;23;92475;-70
2022/04/21 09:53:58;;;;;;;3.58;3.28;;;16.40;58.80;;;;;;6040367;23;92460;-70
2022/04/21 09:56:33;;;;;;;3.28;2.97;;;16.40;58.60;;;;;;6065464;23;93123;-70
2022/04/21 09:59:02;;;;;;;4.00;3.15;;;16.50;58.30;;;;;;6040360;23;92827;-70
2022/04/21 10:01:30;;;;;;;4.07;3.67;;;16.50;58.70;;;;;;6040151;23;97782;-70
2022/04/21 10:03:58;;;;;;;4.10;3.30;;;16.50;57.70;;;;;;6040765;23;91626;-70
2022/04/21 10:06:26;;;;;;;5.72;3.72;;;16.60;58.80;;;;;;6040395;23;92940;-70
2022/04/21 10:08:53;;;;;;;3.22;3.03;;;16.50;59.10;;;;;;6039672;23;93954;-70
2022/04/21 10:11:23;;;;;;;4.97;3.22;;;16.40;58.50;;;;;;6039257;23;94781;-70
2022/04/21 10:13:55;;;;;;;3.53;3.22;;;16.40;58.90;;;;;;6065946;23;92398;-70
2022/04/21 10:16:23;;;;;;;4.30;4.00;;;16.40;59.00;;;;;;6039844;23;94908;-70
2022/04/21 10:18:54;;;;;;;4.03;3.60;;;16.60;59.20;;;;;;6065619;23;92953;-70
2022/04/21 10:21:27;;;;;;;5.55;3.85;;;16.60;58.00;;;;;;6066180;23;92684;-70
2022/04/21 10:23:55;;;;;;;3.60;3.30;;;16.70;57.00;;;;;;6039832;23;92460;-70
2022/04/21 10:26:38;;;;;;;3.75;3.45;;;16.80;58.20;;;;;;6039078;23;109330;-70
2022/04/21 10:29:27;;;;;;;5.45;3.85;;;17.00;58.60;;;;;;6040577;23;93084;-70
2022/04/21 10:32:05;;;;;;;3.97;3.67;;;17.00;58.10;;;;;;6065473;23;92300;-70
2022/04/21 10:34:45;;;;;;;5.50;3.25;;;17.20;57.80;;;;;;6040094;23;92435;-70
2022/04/21 10:37:17;;;;;;;4.22;3.40;;;17.20;57.20;;;;;;6063966;23;95652;-70
2022/04/21 10:40:03;;;;;;;4.68;4.28;;;17.40;56.80;;;;;;6063773;23;96243;-70
2022/04/21 10:42:50;;;;;;;4.28;3.97;;;17.50;56.20;;;;;;6064405;23;92356;-70
2022/04/21 10:45:25;;;;;;;4.22;3.60;;;17.60;55.50;;;;;;6065440;23;92413;-70
2022/04/21 10:48:38;;;;;;;4.60;3.72;;;17.80;54.70;;;;;;6065659;23;93421;-71
2022/04/21 10:51:05;;;;;;;3.53;2.85;;;18.10;53.70;;;;;;6036306;23;95465;-71
2022/04/21 10:59:31;;;;;;;3.80;3.50;;;18.50;52.80;;;;;;6065837;23;93120;-71
2022/04/21 11:02:12;;;;;;;3.80;3.40;;;18.70;52.20;;;;;;6038912;23;95757;-71
2022/04/21 11:04:39;;;;;;;3.90;3.50;;;18.70;52.20;;;;;;6064339;23;94844;-71
2022/04/21 11:07:13;;;;;;;4.90;3.58;;;18.70;51.00;;;;;;6040366;23;92519;-71
2022/04/21 11:09:42;;;;;;;3.88;3.58;;;18.80;51.10;;;;;;6040779;23;95654;-71
2022/04/21 11:12:44;;;;;;;4.70;4.13;;;18.80;51.60;;;;;;6040785;23;95541;-71
2022/04/21 11:15:33;;;;;;;4.63;4.18;;;19.00;51.60;;;;;;6066828;23;92268;-71
2022/04/21 11:18:01;;;;;;;5.68;3.75;;;19.10;51.80;;;;;;6017871;23;92585;-71
2022/04/21 11:20:28;;;;;;;4.20;3.90;;;19.10;51.90;;;;;;6040592;23;95688;-71
2022/04/21 11:22:55;;;;;;;4.50;4.10;;;19.20;51.80;;;;;;6041076;23;95485;-71
2022/04/21 11:25:22;;;;;;;5.00;4.60;;;19.40;50.80;;;;;;6040418;23;92408;-71
2022/04/21 11:27:51;;;;;;;5.80;4.68;;;19.40;50.80;;;;;;6066543;23;98192;-70
2022/04/21 11:30:18;;;;;;;3.85;3.55;;;19.50;51.30;;;;;;6064807;23;95600;-70
2022/04/21 11:32:53;;;;;;;4.80;4.50;;;19.60;51.70;;;;;;6066212;23;94116;-70
2022/04/21 11:35:22;;;;;;;5.55;4.60;;;19.70;50.80;;;;;;6066633;23;92374;-70
2022/04/21 11:37:50;;;;;;;4.97;4.50;;;19.80;50.00;;;;;;6064894;23;92422;-70
2022/04/21 11:40:25;;;;;;;5.20;4.65;;;19.80;50.10;;;;;;6016167;23;95677;-70
2022/04/21 11:42:54;;;;;;;5.03;4.63;;;20.00;50.10;;;;;;6040410;23;93963;-70
2022/04/21 11:45:26;;;;;;;5.80;5.25;;;19.90;49.80;;;;;;6066455;23;92347;-70
2022/04/21 11:47:53;;;;;;;4.95;4.47;;;19.90;50.10;;;;;;6040836;23;91726;-70
2022/04/21 11:50:21;;;;;;;4.90;4.40;;;19.90;50.20;;;;;;6066077;23;92915;-70
2022/04/21 11:52:52;;;;;;;4.55;4.13;;;20.00;49.10;;;;;;6040603;23;92341;-71
2022/04/21 11:55:29;;;;;;;4.90;4.40;;;20.00;48.90;;;;;;6064915;23;94831;-70
2022/04/21 11:57:56;;;;;;;6.03;4.20;;;19.90;48.90;;;;;;6040980;23;92884;-70
2022/04/21 12:08:47;;;;;;;4.43;4.05;;;19.70;50.00;;;;;;6066663;23;92328;-71
2022/04/21 12:11:19;;;;;;;5.72;5.22;;;19.90;50.00;;;;;;6039927;23;95879;-71
2022/04/21 12:13:48;;;;;;;6.72;6.22;;;19.90;49.60;;;;;;6041553;23;92855;-71
2022/04/21 12:16:37;;;;;;;6.70;6.00;;;19.80;49.70;;;;;;6065565;23;102998;-71
2022/04/21 12:19:12;;;;;;;7.18;6.50;;;19.90;50.30;;;;;;6066375;23;92410;-71
2022/04/21 12:21:40;;;;;;;7.90;5.55;;;19.90;50.90;;;;;;6038768;23;99462;-71
2022/04/21 12:24:17;;;;;;;5.78;5.22;;;19.80;50.30;;;;;;6039850;23;97812;-71
2022/04/21 12:26:49;;;;;;;6.95;5.20;;;19.80;50.30;;;;;;6041004;23;92435;-71
2022/04/21 12:29:18;;;;;;;6.30;5.78;;;19.60;51.20;;;;;;6066194;23;92297;-71
2022/04/21 12:31:56;;;;;;;6.03;5.53;;;19.50;51.10;;;;;;6066027;23;93173;-71
2022/04/21 12:34:28;;;;;;;5.22;4.75;;;19.50;52.30;;;;;;6040346;23;95710;-71
2022/04/21 12:37:00;;;;;;;6.68;6.07;;;19.40;51.60;;;;;;6040756;23;92414;-71
2022/04/21 12:39:30;;;;;;;6.13;4.97;;;19.40;52.00;;;;;;6041240;23;91682;-71
2022/04/21 12:42:17;;;;;;;5.40;4.90;;;19.30;51.80;;;;;;6065951;23;93029;-71
2022/04/21 12:44:45;;;;;;;7.28;5.47;;;19.10;51.50;;;;;;6065486;23;110626;-71
2022/04/21 12:47:15;;;;;;;6.43;6.00;;;19.00;51.70;;;;;;6038636;23;94821;-71
2022/04/21 12:50:01;;;;;;;5.95;5.55;;;18.90;51.80;;;;;;6040419;23;92942;-71
2022/04/21 12:52:39;;;;;;;6.63;4.93;;;19.00;52.60;;;;;;6064602;23;95657;-71
2022/04/21 12:55:11;;;;;;;7.50;5.93;;;18.90;52.10;;;;;;6040358;23;95598;-71
2022/04/21 12:57:39;;;;;;;7.45;5.55;;;18.90;53.10;;;;;;6040424;23;92368;-70
2022/04/21 13:00:09;;;;;;;5.95;5.43;;;18.90;54.10;;;;;;6039552;23;109390;-70
2022/04/21 13:02:37;;;;;;;7.68;6.93;;;18.90;54.90;;;;;;6066415;23;93148;-70
2022/04/21 13:05:05;;;;;;;6.70;5.13;;;19.00;54.40;;;;;;6040563;23;95566;-70
2022/04/21 13:07:31;;;;;;;6.35;5.75;;;19.10;53.00;;;;;;6066172;23;92318;-70
2022/04/21 13:09:58;;;;;;;6.18;5.10;;;19.10;52.30;;;;;;6040791;23;92460;-70
2022/04/21 13:12:25;;;;;;;6.00;5.53;;;19.10;51.70;;;;;;6062717;23;98085;-70
2022/04/21 13:14:52;;;;;;;6.10;5.60;;;19.10;51.80;;;;;;6066070;23;95116;-70
2022/04/21 13:17:19;;;;;;;6.45;5.68;;;19.10;52.30;;;;;;6040645;23;92451;-70
2022/04/21 13:19:46;;;;;;;5.35;4.93;;;19.20;52.90;;;;;;6065959;23;100783;-70
2022/04/21 13:22:14;;;;;;;7.57;6.88;;;19.20;52.70;;;;;;6015958;23;95768;-71
2022/04/21 13:24:41;;;;;;;6.45;5.95;;;19.20;52.00;;;;;;6066148;23;93089;-71
2022/04/21 13:27:08;;;;;;;5.95;5.45;;;19.20;52.40;;;;;;6016768;23;93331;-71
2022/04/21 13:29:35;;;;;;;6.05;5.55;;;19.10;53.20;;;;;;6065890;23;91736;-71
2022/04/21 13:35:11;;;;;;;7.07;6.38;;;19.20;54.10;;;;;;6066200;23;92717;-71
2022/04/21 13:38:37;;;;;;;6.07;5.47;;;19.20;54.20;;;;;;6035087;23;94714;-71
2022/04/21 13:41:23;;;;;;;7.70;6.13;;;19.10;54.80;;;;;;6044776;23;92911;-71
2022/04/21 13:43:50;;;;;;;6.03;5.43;;;19.10;54.50;;;;;;6040530;23;93279;-71
2022/04/21 13:46:37;;;;;;;6.80;6.20;;;19.20;55.00;;;;;;6044546;23;93090;-71
2022/04/21 13:49:04;;;;;;;6.63;6.03;;;19.20;55.30;;;;;;6015959;23;92678;-71
2022/04/21 13:51:32;;;;;;;6.10;5.50;;;19.30;54.80;;;;;;6066376;23;92896;-71
2022/04/21 13:53:59;;;;;;;7.78;5.85;;;19.40;55.20;;;;;;6040821;23;93154;-71
2022/04/21 13:56:26;;;;;;;6.53;5.75;;;19.30;54.20;;;;;;6040566;23;92855;-71
2022/04/21 13:58:53;;;;;;;7.63;6.57;;;19.40;55.20;;;;;;6066320;23;92736;-71